sensor_id;sensor_type;location;lat;lon;timestamp;pressure;altitude;pressure_sealevel;temperature
66604;BMP280;53460;39.612;8.822;2024-01-27T00:01:45;98836.41;;;14.10
66604;BMP280;53460;39.612;8.822;2024-01-27T00:04:10;98860.53;;;14.10
66604;BMP280;53460;39.612;8.822;2024-01-27T00:06:36;98877.75;;;14.01
66604;BMP280;53460;39.612;8.822;2024-01-27T00:09:02;98893.91;;;14.03
66604;BMP280;53460;39.612;8.822;2024-01-27T00:11:28;98913.38;;;14.04
66604;BMP280;53460;39.612;8.822;2024-01-27T00:13:53;98921.47;;;14.08
66604;BMP280;53460;39.612;8.822;2024-01-27T00:16:19;98896.53;;;14.01
66604;BMP280;53460;39.612;8.822;2024-01-27T00:18:45;98909.81;;;13.93
66604;BMP280;53460;39.612;8.822;2024-01-27T00:21:11;98914.00;;;14.02
66604;BMP280;53460;39.612;8.822;2024-01-27T00:23:36;98894.41;;;13.94
66604;BMP280;53460;39.612;8.822;2024-01-27T00:26:02;98882.81;;;13.83
66604;BMP280;53460;39.612;8.822;2024-01-27T00:28:29;98872.72;;;13.81
66604;BMP280;53460;39.612;8.822;2024-01-27T00:30:54;98862.03;;;13.83
66604;BMP280;53460;39.612;8.822;2024-01-27T00:33:21;98849.47;;;13.92
66604;BMP280;53460;39.612;8.822;2024-01-27T00:35:47;98834.78;;;13.95
66604;BMP280;53460;39.612;8.822;2024-01-27T00:38:13;98830.72;;;13.92
66604;BMP280;53460;39.612;8.822;2024-01-27T00:40:38;98812.38;;;13.78
66604;BMP280;53460;39.612;8.822;2024-01-27T00:43:05;98815.09;;;13.82
66604;BMP280;53460;39.612;8.822;2024-01-27T00:45:30;98821.06;;;13.77
66604;BMP280;53460;39.612;8.822;2024-01-27T00:47:57;98816.56;;;13.88
66604;BMP280;53460;39.612;8.822;2024-01-27T00:50:23;98805.66;;;13.77
66604;BMP280;53460;39.612;8.822;2024-01-27T00:52:48;98796.44;;;13.86
66604;BMP280;53460;39.612;8.822;2024-01-27T00:55:14;98778.44;;;13.91
66604;BMP280;53460;39.612;8.822;2024-01-27T00:57:40;98765.78;;;13.96
66604;BMP280;53460;39.612;8.822;2024-01-27T01:00:06;98760.13;;;13.79
66604;BMP280;53460;39.612;8.822;2024-01-27T01:02:32;98769.38;;;13.72
66604;BMP280;53460;39.612;8.822;2024-01-27T01:04:58;98770.09;;;13.75
66604;BMP280;53460;39.612;8.822;2024-01-27T01:07:24;98785.09;;;13.90
66604;BMP280;53460;39.612;8.822;2024-01-27T01:09:49;98775.59;;;13.83
66604;BMP280;53460;39.612;8.822;2024-01-27T01:12:15;98769.50;;;13.78
66604;BMP280;53460;39.612;8.822;2024-01-27T01:14:41;98785.63;;;13.82
66604;BMP280;53460;39.612;8.822;2024-01-27T01:17:07;98784.94;;;13.80
66604;BMP280;53460;39.612;8.822;2024-01-27T01:19:32;98778.66;;;13.67
66604;BMP280;53460;39.612;8.822;2024-01-27T01:21:58;98771.56;;;13.82
66604;BMP280;53460;39.612;8.822;2024-01-27T01:24:24;98756.81;;;13.81
66604;BMP280;53460;39.612;8.822;2024-01-27T01:26:49;98752.19;;;13.85
66604;BMP280;53460;39.612;8.822;2024-01-27T01:29:15;98738.19;;;13.89
66604;BMP280;53460;39.612;8.822;2024-01-27T01:31:42;98734.81;;;13.88
66604;BMP280;53460;39.612;8.822;2024-01-27T01:34:08;98717.31;;;13.83
66604;BMP280;53460;39.612;8.822;2024-01-27T01:36:34;98726.66;;;13.82
66604;BMP280;53460;39.612;8.822;2024-01-27T01:38:59;98721.94;;;13.79
66604;BMP280;53460;39.612;8.822;2024-01-27T01:41:25;98729.22;;;13.74
66604;BMP280;53460;39.612;8.822;2024-01-27T01:43:51;98747.50;;;13.86
66604;BMP280;53460;39.612;8.822;2024-01-27T01:46:17;98732.78;;;13.87
66604;BMP280;53460;39.612;8.822;2024-01-27T01:48:43;98729.91;;;13.75
66604;BMP280;53460;39.612;8.822;2024-01-27T01:51:09;98731.97;;;13.78
66604;BMP280;53460;39.612;8.822;2024-01-27T01:53:35;98732.00;;;13.80
66604;BMP280;53460;39.612;8.822;2024-01-27T01:56:02;98738.84;;;13.88
66604;BMP280;53460;39.612;8.822;2024-01-27T01:58:28;98752.91;;;13.88
66604;BMP280;53460;39.612;8.822;2024-01-27T02:01:02;98753.25;;;13.70
66604;BMP280;53460;39.612;8.822;2024-01-27T02:03:27;98775.34;;;13.69
66604;BMP280;53460;39.612;8.822;2024-01-27T02:05:54;98772.84;;;13.79
66604;BMP280;53460;39.612;8.822;2024-01-27T02:08:20;98780.75;;;13.71
66604;BMP280;53460;39.612;8.822;2024-01-27T02:10:46;98762.13;;;13.79
66604;BMP280;53460;39.612;8.822;2024-01-27T02:13:18;98746.13;;;13.83
66604;BMP280;53460;39.612;8.822;2024-01-27T02:15:44;98733.28;;;13.77
66604;BMP280;53460;39.612;8.822;2024-01-27T02:18:10;98724.59;;;13.77
66604;BMP280;53460;39.612;8.822;2024-01-27T02:20:35;98730.53;;;13.73
66604;BMP280;53460;39.612;8.822;2024-01-27T02:23:03;98750.63;;;13.72
66604;BMP280;53460;39.612;8.822;2024-01-27T02:25:30;98750.13;;;13.82
66604;BMP280;53460;39.612;8.822;2024-01-27T02:27:56;98742.06;;;13.80
66604;BMP280;53460;39.612;8.822;2024-01-27T02:30:22;98741.22;;;13.71
66604;BMP280;53460;39.612;8.822;2024-01-27T02:32:48;98758.81;;;13.80
66604;BMP280;53460;39.612;8.822;2024-01-27T02:35:13;98761.44;;;13.78
66604;BMP280;53460;39.612;8.822;2024-01-27T02:37:42;98768.84;;;13.80
66604;BMP280;53460;39.612;8.822;2024-01-27T02:40:08;98757.41;;;13.77
66604;BMP280;53460;39.612;8.822;2024-01-27T02:42:37;98767.53;;;13.81
66604;BMP280;53460;39.612;8.822;2024-01-27T02:45:03;98763.34;;;13.72
66604;BMP280;53460;39.612;8.822;2024-01-27T02:47:30;98775.47;;;13.75
66604;BMP280;53460;39.612;8.822;2024-01-27T02:49:55;98775.41;;;13.73
66604;BMP280;53460;39.612;8.822;2024-01-27T02:52:21;98792.03;;;13.65
66604;BMP280;53460;39.612;8.822;2024-01-27T02:54:47;98819.72;;;13.78
66604;BMP280;53460;39.612;8.822;2024-01-27T02:57:13;98810.81;;;13.67
66604;BMP280;53460;39.612;8.822;2024-01-27T02:59:40;98825.34;;;13.56
66604;BMP280;53460;39.612;8.822;2024-01-27T03:02:06;98848.84;;;13.60
66604;BMP280;53460;39.612;8.822;2024-01-27T03:04:32;98881.13;;;13.66
66604;BMP280;53460;39.612;8.822;2024-01-27T03:06:57;98894.38;;;13.60
66604;BMP280;53460;39.612;8.822;2024-01-27T03:09:23;98903.84;;;13.63
66604;BMP280;53460;39.612;8.822;2024-01-27T03:11:49;98914.59;;;13.65
66604;BMP280;53460;39.612;8.822;2024-01-27T03:14:14;98924.66;;;13.66
66604;BMP280;53460;39.612;8.822;2024-01-27T03:16:40;98926.16;;;13.73
66604;BMP280;53460;39.612;8.822;2024-01-27T03:19:06;98897.22;;;13.68
66604;BMP280;53460;39.612;8.822;2024-01-27T03:21:32;98891.78;;;13.64
66604;BMP280;53460;39.612;8.822;2024-01-27T03:23:58;98883.28;;;13.73
66604;BMP280;53460;39.612;8.822;2024-01-27T03:26:23;98869.81;;;13.69
66604;BMP280;53460;39.612;8.822;2024-01-27T03:28:50;98878.25;;;13.58
66604;BMP280;53460;39.612;8.822;2024-01-27T03:31:16;98875.56;;;13.58
66604;BMP280;53460;39.612;8.822;2024-01-27T03:33:42;98897.09;;;13.62
66604;BMP280;53460;39.612;8.822;2024-01-27T03:36:11;98899.31;;;13.71
66604;BMP280;53460;39.612;8.822;2024-01-27T03:38:38;98879.75;;;13.65
66604;BMP280;53460;39.612;8.822;2024-01-27T03:41:04;98865.09;;;13.70
66604;BMP280;53460;39.612;8.822;2024-01-27T03:43:30;98841.06;;;13.72
66604;BMP280;53460;39.612;8.822;2024-01-27T03:45:57;98823.75;;;13.79
66604;BMP280;53460;39.612;8.822;2024-01-27T03:48:24;98787.13;;;13.90
66604;BMP280;53460;39.612;8.822;2024-01-27T03:50:49;98750.38;;;13.96
66604;BMP280;53460;39.612;8.822;2024-01-27T03:53:15;98692.09;;;13.97
66604;BMP280;53460;39.612;8.822;2024-01-27T03:55:40;98661.44;;;14.08
66604;BMP280;53460;39.612;8.822;2024-01-27T03:58:06;98627.78;;;13.99
66604;BMP280;53460;39.612;8.822;2024-01-27T04:00:32;98600.88;;;13.93
66604;BMP280;53460;39.612;8.822;2024-01-27T04:03:02;98596.25;;;13.97
66604;BMP280;53460;39.612;8.822;2024-01-27T04:05:30;98604.31;;;13.97
66604;BMP280;53460;39.612;8.822;2024-01-27T04:07:56;98596.22;;;13.93
66604;BMP280;53460;39.612;8.822;2024-01-27T04:10:22;98596.91;;;13.96
66604;BMP280;53460;39.612;8.822;2024-01-27T04:12:49;98595.63;;;13.99
66604;BMP280;53460;39.612;8.822;2024-01-27T04:15:14;98596.09;;;13.85
66604;BMP280;53460;39.612;8.822;2024-01-27T04:17:41;98607.50;;;13.88
66604;BMP280;53460;39.612;8.822;2024-01-27T04:20:08;98602.78;;;13.84
66604;BMP280;53460;39.612;8.822;2024-01-27T04:22:34;98606.41;;;14.03
66604;BMP280;53460;39.612;8.822;2024-01-27T04:25:00;98590.94;;;14.01
66604;BMP280;53460;39.612;8.822;2024-01-27T04:27:29;98586.38;;;14.08
66604;BMP280;53460;39.612;8.822;2024-01-27T04:29:55;98577.59;;;14.03
66604;BMP280;53460;39.612;8.822;2024-01-27T04:32:22;98569.66;;;14.11
66604;BMP280;53460;39.612;8.822;2024-01-27T04:34:48;98572.16;;;14.01
66604;BMP280;53460;39.612;8.822;2024-01-27T04:37:13;98565.69;;;14.16
66604;BMP280;53460;39.612;8.822;2024-01-27T04:39:39;98563.63;;;14.11
66604;BMP280;53460;39.612;8.822;2024-01-27T04:42:05;98575.00;;;14.13
66604;BMP280;53460;39.612;8.822;2024-01-27T04:44:34;98575.06;;;14.15
66604;BMP280;53460;39.612;8.822;2024-01-27T04:47:00;98579.53;;;13.99
66604;BMP280;53460;39.612;8.822;2024-01-27T04:49:26;98599.03;;;14.03
66604;BMP280;53460;39.612;8.822;2024-01-27T04:51:51;98607.03;;;14.01
66604;BMP280;53460;39.612;8.822;2024-01-27T04:54:17;98631.06;;;13.95
66604;BMP280;53460;39.612;8.822;2024-01-27T04:56:43;98636.78;;;14.19
66604;BMP280;53460;39.612;8.822;2024-01-27T04:59:08;98629.19;;;14.04
66604;BMP280;53460;39.612;8.822;2024-01-27T05:01:34;98629.97;;;14.10
66604;BMP280;53460;39.612;8.822;2024-01-27T05:04:00;98627.22;;;14.06
66604;BMP280;53460;39.612;8.822;2024-01-27T05:06:25;98649.09;;;13.91
66604;BMP280;53460;39.612;8.822;2024-01-27T05:08:51;98669.38;;;14.02
66604;BMP280;53460;39.612;8.822;2024-01-27T05:11:25;98677.41;;;14.02
66604;BMP280;53460;39.612;8.822;2024-01-27T05:13:52;98686.94;;;14.11
66604;BMP280;53460;39.612;8.822;2024-01-27T05:16:17;98683.88;;;13.86
66604;BMP280;53460;39.612;8.822;2024-01-27T05:18:43;98698.88;;;14.02
66604;BMP280;53460;39.612;8.822;2024-01-27T05:21:09;98718.28;;;14.00
66604;BMP280;53460;39.612;8.822;2024-01-27T05:23:34;98740.28;;;13.95
66604;BMP280;53460;39.612;8.822;2024-01-27T05:26:00;98747.50;;;13.86
66604;BMP280;53460;39.612;8.822;2024-01-27T05:28:25;98777.09;;;13.92
66604;BMP280;53460;39.612;8.822;2024-01-27T05:30:51;98783.94;;;13.99
66604;BMP280;53460;39.612;8.822;2024-01-27T05:33:17;98790.63;;;13.98
66604;BMP280;53460;39.612;8.822;2024-01-27T05:35:42;98808.56;;;13.90
66604;BMP280;53460;39.612;8.822;2024-01-27T05:38:08;98835.41;;;13.92
66604;BMP280;53460;39.612;8.822;2024-01-27T05:40:34;98846.00;;;13.85
66604;BMP280;53460;39.612;8.822;2024-01-27T05:43:00;98866.13;;;13.86
66604;BMP280;53460;39.612;8.822;2024-01-27T05:45:25;98880.31;;;13.93
66604;BMP280;53460;39.612;8.822;2024-01-27T05:47:52;98904.16;;;13.79
66604;BMP280;53460;39.612;8.822;2024-01-27T05:50:17;98949.81;;;13.83
66604;BMP280;53460;39.612;8.822;2024-01-27T05:52:43;98965.19;;;13.82
66604;BMP280;53460;39.612;8.822;2024-01-27T05:55:09;98970.66;;;13.88
66604;BMP280;53460;39.612;8.822;2024-01-27T05:57:36;98978.56;;;13.80
66604;BMP280;53460;39.612;8.822;2024-01-27T06:00:03;99002.25;;;13.92
66604;BMP280;53460;39.612;8.822;2024-01-27T06:02:30;99007.94;;;13.76
66604;BMP280;53460;39.612;8.822;2024-01-27T06:04:56;99033.69;;;13.90
66604;BMP280;53460;39.612;8.822;2024-01-27T06:07:21;99041.25;;;13.97
66604;BMP280;53460;39.612;8.822;2024-01-27T06:09:47;99031.28;;;14.02
66604;BMP280;53460;39.612;8.822;2024-01-27T06:12:12;99030.00;;;14.05
66604;BMP280;53460;39.612;8.822;2024-01-27T06:14:38;99009.75;;;13.98
66604;BMP280;53460;39.612;8.822;2024-01-27T06:17:04;98996.56;;;14.08
66604;BMP280;53460;39.612;8.822;2024-01-27T06:19:30;98970.63;;;14.18
66604;BMP280;53460;39.612;8.822;2024-01-27T06:21:56;98928.47;;;14.23
66604;BMP280;53460;39.612;8.822;2024-01-27T06:24:22;98888.28;;;14.25
66604;BMP280;53460;39.612;8.822;2024-01-27T06:26:48;98869.47;;;14.23
66604;BMP280;53460;39.612;8.822;2024-01-27T06:29:14;98837.97;;;14.24
66604;BMP280;53460;39.612;8.822;2024-01-27T06:31:40;98806.53;;;14.28
66604;BMP280;53460;39.612;8.822;2024-01-27T06:34:05;98771.66;;;14.26
66604;BMP280;53460;39.612;8.822;2024-01-27T06:36:31;98750.63;;;14.12
66604;BMP280;53460;39.612;8.822;2024-01-27T06:38:58;98752.84;;;14.24
66604;BMP280;53460;39.612;8.822;2024-01-27T06:41:23;98738.84;;;14.32
66604;BMP280;53460;39.612;8.822;2024-01-27T06:43:49;98724.84;;;14.35
66604;BMP280;53460;39.612;8.822;2024-01-27T06:46:14;98704.16;;;14.42
66604;BMP280;53460;39.612;8.822;2024-01-27T06:48:40;98673.88;;;14.35
66604;BMP280;53460;39.612;8.822;2024-01-27T06:51:06;98657.94;;;14.45
66604;BMP280;53460;39.612;8.822;2024-01-27T06:53:31;98646.63;;;14.53
66604;BMP280;53460;39.612;8.822;2024-01-27T06:55:57;98621.84;;;14.57
66604;BMP280;53460;39.612;8.822;2024-01-27T06:58:23;98604.47;;;14.60
66604;BMP280;53460;39.612;8.822;2024-01-27T07:00:48;98595.84;;;14.69
66604;BMP280;53460;39.612;8.822;2024-01-27T07:03:14;98558.97;;;14.74
66604;BMP280;53460;39.612;8.822;2024-01-27T07:05:40;98534.94;;;14.82
66604;BMP280;53460;39.612;8.822;2024-01-27T07:08:07;98515.56;;;14.90
66604;BMP280;53460;39.612;8.822;2024-01-27T07:10:35;98486.75;;;14.98
66604;BMP280;53460;39.612;8.822;2024-01-27T07:13:01;98464.59;;;14.96
66604;BMP280;53460;39.612;8.822;2024-01-27T07:15:27;98443.13;;;15.00
66604;BMP280;53460;39.612;8.822;2024-01-27T07:17:53;98432.38;;;14.98
66604;BMP280;53460;39.612;8.822;2024-01-27T07:20:19;98418.38;;;15.07
66604;BMP280;53460;39.612;8.822;2024-01-27T07:22:47;98409.66;;;15.07
66604;BMP280;53460;39.612;8.822;2024-01-27T07:25:13;98400.31;;;15.18
66604;BMP280;53460;39.612;8.822;2024-01-27T07:27:39;98415.69;;;15.09
66604;BMP280;53460;39.612;8.822;2024-01-27T07:30:05;98424.44;;;15.14
66604;BMP280;53460;39.612;8.822;2024-01-27T07:32:33;98419.75;;;15.14
66604;BMP280;53460;39.612;8.822;2024-01-27T07:34:59;98434.53;;;15.17
66604;BMP280;53460;39.612;8.822;2024-01-27T07:37:24;98439.97;;;15.28
66604;BMP280;53460;39.612;8.822;2024-01-27T07:39:50;98437.34;;;15.38
66604;BMP280;53460;39.612;8.822;2024-01-27T07:42:15;98447.50;;;15.47
66604;BMP280;53460;39.612;8.822;2024-01-27T07:44:41;98450.88;;;15.50
66604;BMP280;53460;39.612;8.822;2024-01-27T07:47:08;98454.78;;;15.37
66604;BMP280;53460;39.612;8.822;2024-01-27T07:49:34;98450.19;;;15.56
66604;BMP280;53460;39.612;8.822;2024-01-27T07:52:00;98449.56;;;15.65
66604;BMP280;53460;39.612;8.822;2024-01-27T07:54:25;98458.41;;;15.82
66604;BMP280;53460;39.612;8.822;2024-01-27T07:56:51;98460.47;;;15.96
66604;BMP280;53460;39.612;8.822;2024-01-27T07:59:17;98469.94;;;16.17
66604;BMP280;53460;39.612;8.822;2024-01-27T08:01:43;98482.75;;;16.29
66604;BMP280;53460;39.612;8.822;2024-01-27T08:04:09;98529.81;;;16.13
66604;BMP280;53460;39.612;8.822;2024-01-27T08:06:46;98543.16;;;15.93
66604;BMP280;53460;39.612;8.822;2024-01-27T08:09:11;98543.31;;;16.34
66604;BMP280;53460;39.612;8.822;2024-01-27T08:11:37;98580.94;;;16.26
66604;BMP280;53460;39.612;8.822;2024-01-27T08:14:03;98595.13;;;16.42
66604;BMP280;53460;39.612;8.822;2024-01-27T08:16:28;98642.94;;;16.48
66604;BMP280;53460;39.612;8.822;2024-01-27T08:18:54;98654.19;;;16.16
66604;BMP280;53460;39.612;8.822;2024-01-27T08:21:20;98625.44;;;16.43
66604;BMP280;53460;39.612;8.822;2024-01-27T08:23:45;98664.00;;;17.10
66604;BMP280;53460;39.612;8.822;2024-01-27T08:26:11;98785.72;;;16.68
66604;BMP280;53460;39.612;8.822;2024-01-27T08:28:37;98812.44;;;16.38
66604;BMP280;53460;39.612;8.822;2024-01-27T08:31:02;98794.66;;;17.05
66604;BMP280;53460;39.612;8.822;2024-01-27T08:33:28;98899.81;;;17.24
66604;BMP280;53460;39.612;8.822;2024-01-27T08:35:57;99015.03;;;17.25
66604;BMP280;53460;39.612;8.822;2024-01-27T08:38:22;99069.34;;;16.97
66604;BMP280;53460;39.612;8.822;2024-01-27T08:40:48;99103.44;;;16.72
66604;BMP280;53460;39.612;8.822;2024-01-27T08:43:14;99106.75;;;17.35
66604;BMP280;53460;39.612;8.822;2024-01-27T08:45:40;99211.72;;;17.17
66604;BMP280;53460;39.612;8.822;2024-01-27T08:48:06;99255.97;;;17.00
66604;BMP280;53460;39.612;8.822;2024-01-27T08:50:32;99288.41;;;17.10
66604;BMP280;53460;39.612;8.822;2024-01-27T08:52:58;99330.41;;;16.77
66604;BMP280;53460;39.612;8.822;2024-01-27T08:55:24;99313.75;;;16.87
66604;BMP280;53460;39.612;8.822;2024-01-27T08:57:50;99300.19;;;16.80
66604;BMP280;53460;39.612;8.822;2024-01-27T09:00:16;99318.34;;;16.36
66604;BMP280;53460;39.612;8.822;2024-01-27T09:02:42;99263.56;;;16.63
66604;BMP280;53460;39.612;8.822;2024-01-27T09:05:08;99327.13;;;16.80
66604;BMP280;53460;39.612;8.822;2024-01-27T09:07:34;99386.94;;;17.21
66604;BMP280;53460;39.612;8.822;2024-01-27T09:10:00;99487.88;;;17.12
66604;BMP280;53460;39.612;8.822;2024-01-27T09:12:26;99549.97;;;17.62
66604;BMP280;53460;39.612;8.822;2024-01-27T09:14:51;99645.63;;;17.17
66604;BMP280;53460;39.612;8.822;2024-01-27T09:17:19;99670.75;;;17.70
66604;BMP280;53460;39.612;8.822;2024-01-27T09:19:45;99737.63;;;17.75
66604;BMP280;53460;39.612;8.822;2024-01-27T09:22:11;99822.63;;;17.76
66604;BMP280;53460;39.612;8.822;2024-01-27T09:24:37;99894.84;;;17.44
66604;BMP280;53460;39.612;8.822;2024-01-27T09:27:03;99901.31;;;17.31
66604;BMP280;53460;39.612;8.822;2024-01-27T09:29:29;99864.53;;;17.47
66604;BMP280;53460;39.612;8.822;2024-01-27T09:31:55;99887.84;;;17.31
66604;BMP280;53460;39.612;8.822;2024-01-27T09:34:20;99895.28;;;17.66
66604;BMP280;53460;39.612;8.822;2024-01-27T09:36:46;99966.00;;;17.97
66604;BMP280;53460;39.612;8.822;2024-01-27T09:39:11;100027.00;;;17.76
66604;BMP280;53460;39.612;8.822;2024-01-27T09:41:37;100028.19;;;17.69
66604;BMP280;53460;39.612;8.822;2024-01-27T09:44:04;100054.53;;;17.70
66604;BMP280;53460;39.612;8.822;2024-01-27T09:46:31;99979.91;;;17.19
66604;BMP280;53460;39.612;8.822;2024-01-27T09:48:57;100001.53;;;17.51
66604;BMP280;53460;39.612;8.822;2024-01-27T09:51:25;100044.91;;;17.31
66604;BMP280;53460;39.612;8.822;2024-01-27T09:53:52;100037.38;;;17.58
66604;BMP280;53460;39.612;8.822;2024-01-27T09:56:18;100082.16;;;17.69
66604;BMP280;53460;39.612;8.822;2024-01-27T09:58:45;100171.28;;;17.19
66604;BMP280;53460;39.612;8.822;2024-01-27T10:01:11;100178.38;;;17.86
66604;BMP280;53460;39.612;8.822;2024-01-27T10:03:41;100345.91;;;18.22
66604;BMP280;53460;39.612;8.822;2024-01-27T10:06:09;100440.00;;;18.32
66604;BMP280;53460;39.612;8.822;2024-01-27T10:08:35;100543.44;;;18.36
66604;BMP280;53460;39.612;8.822;2024-01-27T10:11:07;100602.81;;;18.34
66604;BMP280;53460;39.612;8.822;2024-01-27T10:13:34;100660.78;;;18.53
66604;BMP280;53460;39.612;8.822;2024-01-27T10:16:06;100720.34;;;18.57
66604;BMP280;53460;39.612;8.822;2024-01-27T10:18:33;100803.56;;;19.08
66604;BMP280;53460;39.612;8.822;2024-01-27T10:20:59;100816.06;;;18.72
66604;BMP280;53460;39.612;8.822;2024-01-27T10:23:25;100764.84;;;18.78
66604;BMP280;53460;39.612;8.822;2024-01-27T10:25:51;100815.19;;;18.89
66604;BMP280;53460;39.612;8.822;2024-01-27T10:28:18;100886.09;;;19.57
66604;BMP280;53460;39.612;8.822;2024-01-27T10:30:44;100963.13;;;20.02
66604;BMP280;53460;39.612;8.822;2024-01-27T10:33:10;101051.53;;;21.24
66604;BMP280;53460;39.612;8.822;2024-01-27T10:35:38;101126.84;;;22.18
66604;BMP280;53460;39.612;8.822;2024-01-27T10:38:03;100682.53;;;29.01
66604;BMP280;53460;39.612;8.822;2024-01-27T10:40:29;101372.91;;;30.95
66604;BMP280;53460;39.612;8.822;2024-01-27T10:43:08;101431.16;;;28.26
66604;BMP280;53460;39.612;8.822;2024-01-27T10:48:02;101349.28;;;24.07
66604;BMP280;53460;39.612;8.822;2024-01-27T10:50:28;101299.13;;;22.64
66604;BMP280;53460;39.612;8.822;2024-01-27T10:52:57;101277.19;;;24.20
66604;BMP280;53460;39.612;8.822;2024-01-27T10:55:24;101262.28;;;22.59
66604;BMP280;53460;39.612;8.822;2024-01-27T10:57:52;101252.97;;;23.46
66604;BMP280;53460;39.612;8.822;2024-01-27T11:00:19;101263.28;;;23.98
66604;BMP280;53460;39.612;8.822;2024-01-27T11:02:45;101201.00;;;22.20
66604;BMP280;53460;39.612;8.822;2024-01-27T11:05:13;101213.59;;;23.55
66604;BMP280;53460;39.612;8.822;2024-01-27T11:07:41;101212.81;;;23.05
66604;BMP280;53460;39.612;8.822;2024-01-27T11:10:07;101231.75;;;23.41
66604;BMP280;53460;39.612;8.822;2024-01-27T11:12:33;101219.75;;;23.56
66604;BMP280;53460;39.612;8.822;2024-01-27T11:14:59;101204.22;;;23.22
66604;BMP280;53460;39.612;8.822;2024-01-27T11:17:25;101222.81;;;23.80
66604;BMP280;53460;39.612;8.822;2024-01-27T11:19:50;101223.34;;;23.71
66604;BMP280;53460;39.612;8.822;2024-01-27T11:22:24;101226.91;;;23.81
66604;BMP280;53460;39.612;8.822;2024-01-27T11:24:52;101220.19;;;23.88
66604;BMP280;53460;39.612;8.822;2024-01-27T11:27:18;101181.59;;;23.56
66604;BMP280;53460;39.612;8.822;2024-01-27T11:29:52;101173.63;;;22.82
66604;BMP280;53460;39.612;8.822;2024-01-27T11:32:18;101140.34;;;21.50
66604;BMP280;53460;39.612;8.822;2024-01-27T11:34:44;101104.81;;;21.69
66604;BMP280;53460;39.612;8.822;2024-01-27T11:37:14;101066.97;;;21.46
66604;BMP280;53460;39.612;8.822;2024-01-27T11:39:40;101086.56;;;22.06
66604;BMP280;53460;39.612;8.822;2024-01-27T11:42:07;101072.03;;;22.67
66604;BMP280;53460;39.612;8.822;2024-01-27T11:44:34;101069.47;;;22.01
66604;BMP280;53460;39.612;8.822;2024-01-27T11:47:00;101074.09;;;21.95
66604;BMP280;53460;39.612;8.822;2024-01-27T11:49:26;101078.84;;;21.94
66604;BMP280;53460;39.612;8.822;2024-01-27T11:51:52;101099.28;;;22.71
66604;BMP280;53460;39.612;8.822;2024-01-27T11:54:18;101103.16;;;23.00
66604;BMP280;53460;39.612;8.822;2024-01-27T11:56:43;101081.22;;;22.12
66604;BMP280;53460;39.612;8.822;2024-01-27T11:59:10;101086.00;;;23.38
66604;BMP280;53460;39.612;8.822;2024-01-27T12:01:36;101103.25;;;23.54
66604;BMP280;53460;39.612;8.822;2024-01-27T12:04:03;101099.53;;;23.34
66604;BMP280;53460;39.612;8.822;2024-01-27T12:06:30;101098.81;;;23.29
66604;BMP280;53460;39.612;8.822;2024-01-27T12:08:56;101094.78;;;23.34
66604;BMP280;53460;39.612;8.822;2024-01-27T12:11:26;101097.56;;;22.92
66604;BMP280;53460;39.612;8.822;2024-01-27T12:13:52;101097.97;;;23.69
66604;BMP280;53460;39.612;8.822;2024-01-27T12:16:20;101084.50;;;23.29
66604;BMP280;53460;39.612;8.822;2024-01-27T12:18:46;101083.31;;;23.40
66604;BMP280;53460;39.612;8.822;2024-01-27T12:21:11;101088.25;;;23.53
66604;BMP280;53460;39.612;8.822;2024-01-27T12:23:49;101077.41;;;23.59
66604;BMP280;53460;39.612;8.822;2024-01-27T12:26:15;101058.81;;;22.51
66604;BMP280;53460;39.612;8.822;2024-01-27T12:28:41;101051.09;;;23.26
66604;BMP280;53460;39.612;8.822;2024-01-27T12:31:06;101057.28;;;22.84
66604;BMP280;53460;39.612;8.822;2024-01-27T12:33:32;101071.44;;;23.17
66604;BMP280;53460;39.612;8.822;2024-01-27T12:35:58;101046.09;;;23.10
66604;BMP280;53460;39.612;8.822;2024-01-27T12:38:23;101060.44;;;23.63
66604;BMP280;53460;39.612;8.822;2024-01-27T12:40:49;101040.44;;;23.44
66604;BMP280;53460;39.612;8.822;2024-01-27T12:43:15;101025.63;;;22.59
66604;BMP280;53460;39.612;8.822;2024-01-27T12:45:41;101029.00;;;23.04
66604;BMP280;53460;39.612;8.822;2024-01-27T12:48:06;101028.00;;;22.39
66604;BMP280;53460;39.612;8.822;2024-01-27T12:50:32;101030.13;;;23.37
66604;BMP280;53460;39.612;8.822;2024-01-27T12:52:59;101028.69;;;22.37
66604;BMP280;53460;39.612;8.822;2024-01-27T12:55:25;101008.47;;;22.95
66604;BMP280;53460;39.612;8.822;2024-01-27T12:57:50;101015.78;;;22.84
66604;BMP280;53460;39.612;8.822;2024-01-27T13:00:16;101029.56;;;22.96
66604;BMP280;53460;39.612;8.822;2024-01-27T13:02:42;101019.28;;;22.44
66604;BMP280;53460;39.612;8.822;2024-01-27T13:05:08;101004.25;;;22.03
66604;BMP280;53460;39.612;8.822;2024-01-27T13:07:34;101004.59;;;23.10
66604;BMP280;53460;39.612;8.822;2024-01-27T13:10:00;101012.00;;;22.59
66604;BMP280;53460;39.612;8.822;2024-01-27T13:12:26;100996.94;;;22.52
66604;BMP280;53460;39.612;8.822;2024-01-27T13:14:52;101005.16;;;23.00
66604;BMP280;53460;39.612;8.822;2024-01-27T13:17:17;100987.41;;;22.11
66604;BMP280;53460;39.612;8.822;2024-01-27T13:19:44;100991.88;;;21.94
66604;BMP280;53460;39.612;8.822;2024-01-27T13:22:11;100980.44;;;22.42
66604;BMP280;53460;39.612;8.822;2024-01-27T13:24:37;101003.81;;;23.03
66604;BMP280;53460;39.612;8.822;2024-01-27T13:27:04;101014.69;;;22.57
66604;BMP280;53460;39.612;8.822;2024-01-27T13:29:30;101004.72;;;22.30
66604;BMP280;53460;39.612;8.822;2024-01-27T13:31:58;101020.06;;;22.13
66604;BMP280;53460;39.612;8.822;2024-01-27T13:34:27;100995.06;;;21.83
66604;BMP280;53460;39.612;8.822;2024-01-27T13:36:54;101013.84;;;22.46
66604;BMP280;53460;39.612;8.822;2024-01-27T13:39:19;101012.75;;;22.24
66604;BMP280;53460;39.612;8.822;2024-01-27T13:41:45;101031.53;;;22.45
66604;BMP280;53460;39.612;8.822;2024-01-27T13:44:10;101042.28;;;22.37
66604;BMP280;53460;39.612;8.822;2024-01-27T13:46:36;101026.47;;;21.26
66604;BMP280;53460;39.612;8.822;2024-01-27T13:49:02;101033.72;;;22.17
66604;BMP280;53460;39.612;8.822;2024-01-27T13:51:27;101054.03;;;22.50
66604;BMP280;53460;39.612;8.822;2024-01-27T13:53:53;101047.06;;;22.03
66604;BMP280;53460;39.612;8.822;2024-01-27T13:56:18;101033.41;;;21.99
66604;BMP280;53460;39.612;8.822;2024-01-27T13:58:45;101035.06;;;22.14
66604;BMP280;53460;39.612;8.822;2024-01-27T14:01:12;101040.66;;;22.24